createdAt,value
2018-04-23T00:01:22.690Z,46.87
2018-04-23T00:03:52.187Z,47.00
2018-04-23T00:06:21.717Z,47.10
2018-04-23T00:08:51.293Z,47.32
2018-04-23T00:11:20.826Z,47.64
2018-04-23T00:13:50.330Z,47.89
2018-04-23T00:16:19.944Z,48.15
2018-04-23T00:18:49.937Z,48.40
2018-04-23T00:21:19.464Z,48.62
2018-04-23T00:23:48.979Z,48.70
2018-04-23T00:26:18.488Z,48.95
2018-04-23T00:28:48.072Z,49.19
2018-04-23T00:31:17.598Z,49.42
2018-04-23T00:33:47.120Z,49.59
2018-04-23T00:36:17.011Z,49.48
2018-04-23T00:38:46.598Z,49.78
2018-04-23T00:41:16.110Z,49.91
2018-04-23T00:43:45.632Z,49.69
2018-04-23T00:46:15.146Z,49.73
2018-04-23T00:48:44.657Z,49.57
2018-04-23T00:51:14.184Z,49.59
2018-04-23T00:53:43.756Z,49.77
2018-04-23T00:56:13.313Z,49.69
2018-04-23T00:58:42.820Z,50.02
2018-04-23T01:01:12.728Z,50.22
2018-04-23T01:03:42.648Z,50.67
2018-04-23T01:06:12.163Z,50.62
2018-04-23T01:08:42.073Z,50.81
2018-04-23T01:11:11.974Z,50.94
2018-04-23T01:13:41.493Z,51.13
2018-04-23T01:16:11.418Z,51.16
2018-04-23T01:18:41.330Z,51.27
2018-04-23T01:21:11.556Z,51.44
2018-04-23T01:23:41.083Z,51.74
2018-04-23T01:26:10.588Z,52.02
2018-04-23T01:28:40.135Z,52.23
2018-04-23T01:31:09.672Z,52.39
2018-04-23T01:33:39.586Z,52.50
2018-04-23T01:36:09.494Z,52.73
2018-04-23T01:38:39.030Z,53.03
2018-04-23T01:41:08.544Z,52.89
2018-04-23T01:43:38.048Z,53.20
2018-04-23T01:46:07.550Z,52.85
2018-04-23T01:48:37.056Z,52.78
2018-04-23T01:51:06.618Z,52.88
2018-04-23T01:53:36.448Z,52.98
2018-04-23T01:56:05.587Z,52.82
2018-04-23T01:58:35.092Z,53.42
2018-04-23T02:01:04.594Z,53.76
2018-04-23T02:03:34.110Z,54.26
2018-04-23T02:06:03.646Z,53.88
2018-04-23T02:08:33.174Z,53.76
2018-04-23T02:11:02.882Z,53.89
2018-04-23T02:13:32.385Z,53.58
2018-04-23T02:16:01.967Z,53.73
2018-04-23T02:18:31.620Z,53.89
2018-04-23T02:21:01.528Z,53.83
2018-04-23T02:23:31.434Z,53.84
2018-04-23T02:26:01.252Z,53.70
2018-04-23T02:28:31.184Z,53.86
2018-04-23T02:31:00.698Z,53.56
2018-04-23T02:33:30.228Z,53.43
2018-04-23T02:35:59.744Z,53.31
2018-04-23T02:38:29.252Z,53.28
2018-04-23T02:40:58.752Z,53.21
2018-04-23T02:43:28.283Z,52.98
2018-04-23T02:45:57.783Z,52.78
2018-04-23T02:48:27.314Z,53.18
2018-04-23T02:50:57.224Z,53.71
2018-04-23T02:53:26.736Z,54.17
2018-04-23T02:55:56.954Z,54.10
2018-04-23T02:58:26.883Z,53.77
2018-04-23T03:00:56.794Z,53.63
2018-04-23T03:03:26.700Z,53.69
2018-04-23T03:05:56.237Z,53.88
2018-04-23T03:08:25.744Z,53.58
2018-04-23T03:10:55.257Z,52.96
2018-04-23T03:13:24.762Z,53.52
2018-04-23T03:15:54.266Z,53.37
2018-04-23T03:18:23.450Z,53.00
2018-04-23T03:20:52.961Z,52.73
2018-04-23T03:23:22.464Z,53.26
2018-04-23T03:25:51.660Z,52.95
2018-04-23T03:28:21.183Z,52.77
2018-04-23T03:30:50.687Z,52.76
2018-04-23T03:33:20.394Z,52.89
2018-04-23T03:35:49.909Z,53.03
2018-04-23T03:38:19.394Z,52.50
2018-04-23T03:40:48.919Z,51.88
2018-04-23T03:43:18.420Z,51.69
2018-04-23T03:45:47.932Z,51.32
2018-04-23T03:48:17.431Z,51.08
2018-04-23T03:50:46.942Z,50.72
2018-04-23T03:53:16.458Z,50.69
2018-04-23T03:55:45.957Z,50.30
2018-04-23T03:58:15.469Z,51.22
2018-04-23T04:00:45.011Z,51.34
2018-04-23T04:03:14.524Z,51.04
2018-04-23T04:05:44.439Z,50.65
2018-04-23T04:08:13.968Z,50.71
2018-04-23T04:10:43.475Z,50.40
2018-04-23T04:13:30.019Z,50.46
2018-04-23T04:16:16.410Z,50.50
2018-04-23T04:18:46.781Z,50.60
2018-04-23T04:21:16.315Z,50.52
2018-04-23T04:23:46.322Z,50.45
2018-04-23T04:27:03.931Z,50.27
2018-04-23T04:29:35.144Z,50.43
2018-04-23T04:32:04.673Z,50.54
2018-04-23T04:34:34.187Z,50.67
2018-04-23T04:37:03.751Z,50.53
2018-04-23T04:39:33.323Z,50.58
2018-04-23T04:42:03.231Z,50.54
2018-04-23T04:44:33.151Z,50.50
2018-04-23T04:47:03.093Z,50.42
2018-04-23T04:49:32.603Z,50.32
2018-04-23T04:52:02.425Z,50.09
2018-04-23T04:54:32.212Z,49.87
2018-04-23T04:57:01.713Z,49.66
2018-04-23T04:59:31.223Z,49.18
2018-04-23T05:02:00.723Z,48.67
2018-04-23T05:04:30.639Z,48.19
2018-04-23T05:07:00.563Z,47.29
2018-04-23T05:09:30.066Z,47.11
2018-04-23T05:11:59.568Z,46.56
2018-04-23T05:14:29.496Z,46.11
2018-04-23T05:16:59.011Z,45.21
2018-04-23T05:19:28.294Z,44.77
2018-04-23T05:23:02.681Z,44.13
2018-04-23T05:25:32.177Z,42.96
2018-04-23T05:28:01.710Z,42.73
2018-04-23T05:30:31.427Z,42.80
2018-04-23T05:33:01.340Z,42.71
2018-04-23T05:35:31.269Z,42.65
2018-04-23T05:38:01.207Z,42.20
2018-04-23T05:40:30.719Z,41.65
2018-04-23T05:43:00.019Z,41.85
2018-04-23T05:45:29.510Z,41.97
2018-04-23T05:47:59.023Z,43.01
2018-04-23T05:50:28.532Z,43.41
2018-04-23T05:52:58.070Z,43.47
2018-04-23T05:55:27.577Z,43.12
2018-04-23T05:57:57.094Z,43.44
2018-04-23T06:00:26.612Z,42.75
2018-04-23T06:02:56.506Z,39.45
2018-04-23T06:05:26.044Z,37.85
2018-04-23T06:07:55.952Z,37.42
2018-04-23T06:10:25.853Z,37.32
2018-04-23T06:12:55.367Z,37.51
2018-04-23T06:15:25.277Z,36.58
2018-04-23T06:17:55.347Z,36.26
2018-04-23T06:20:25.827Z,36.43
2018-04-23T06:22:55.915Z,36.07
2018-04-23T06:25:26.453Z,35.43
2018-04-23T06:27:56.541Z,33.97
2018-04-23T06:30:26.593Z,33.40
2018-04-23T06:32:56.685Z,33.13
2018-04-23T06:35:26.749Z,33.31
2018-04-23T06:37:56.838Z,33.94
2018-04-23T06:40:26.919Z,33.71
2018-04-23T06:42:56.986Z,32.72
2018-04-23T06:45:27.071Z,32.54
2018-04-23T06:47:57.165Z,33.30
2018-04-23T06:51:02.905Z,33.56
2018-04-23T06:53:32.998Z,31.77
2018-04-23T06:56:03.078Z,31.33
2018-04-23T06:58:33.183Z,31.73
2018-04-23T07:01:03.714Z,29.93
2018-04-23T07:03:33.784Z,29.91
2018-04-23T07:06:04.238Z,30.29
2018-04-23T07:08:34.537Z,29.84
2018-04-23T07:11:04.614Z,30.74
2018-04-23T07:13:34.702Z,29.62
2018-04-23T07:16:04.772Z,31.05
2018-04-23T07:18:35.259Z,31.63
2018-04-23T07:21:05.336Z,31.55
2018-04-23T07:23:36.025Z,29.99
2018-04-23T07:26:06.097Z,31.95
2018-04-23T07:28:36.151Z,31.62
2018-04-23T07:31:05.975Z,33.37
2018-04-23T07:33:36.206Z,33.45
2018-04-23T07:36:06.264Z,32.56
2018-04-23T07:38:36.729Z,32.43
2018-04-23T07:41:06.863Z,33.17
2018-04-23T07:43:36.924Z,32.75
2018-04-23T07:46:07.005Z,33.08
2018-04-23T07:48:37.273Z,32.32
2018-04-23T07:51:07.344Z,31.56
2018-04-23T07:53:37.451Z,31.38
2018-04-23T07:56:07.523Z,33.07
2018-04-23T07:58:37.989Z,31.69
2018-04-23T08:01:08.409Z,31.88
2018-04-23T08:03:38.494Z,32.66
2018-04-23T08:06:08.956Z,32.45
2018-04-23T08:08:39.025Z,32.26
2018-04-23T08:11:09.306Z,32.79
2018-04-23T08:13:39.416Z,33.41
2018-04-23T08:16:09.496Z,32.60
2018-04-23T08:18:39.979Z,32.75
2018-04-23T08:21:10.097Z,33.71
2018-04-23T08:23:40.186Z,32.05
2018-04-23T08:26:10.635Z,31.97
2018-04-23T08:28:40.728Z,32.65
2018-04-23T08:31:10.804Z,32.01
2018-04-23T08:33:40.902Z,32.75
2018-04-23T08:36:11.030Z,31.82
2018-04-23T08:38:41.099Z,31.45
2018-04-23T08:41:11.219Z,32.29
2018-04-23T08:43:41.726Z,33.52
2018-04-23T08:46:11.941Z,33.11
2018-04-23T08:48:42.042Z,33.61
2018-04-23T08:51:12.107Z,33.22
2018-04-23T08:53:42.205Z,32.91
2018-04-23T08:56:12.312Z,33.39
2018-04-23T08:58:42.401Z,32.88
2018-04-23T09:01:12.480Z,31.35
2018-04-23T09:03:42.952Z,31.54
2018-04-23T09:06:13.020Z,31.61
2018-04-23T09:08:43.500Z,31.98
2018-04-23T09:11:13.595Z,30.36
2018-04-23T09:13:43.671Z,29.84
2018-04-23T09:16:13.746Z,30.50
2018-04-23T09:18:43.831Z,30.11
2018-04-23T09:21:14.318Z,28.81
2018-04-23T09:23:44.407Z,29.00
2018-04-23T09:26:14.487Z,28.73
2018-04-23T09:28:45.003Z,28.94
2018-04-23T09:31:15.069Z,28.83
2018-04-23T09:33:45.133Z,28.70
2018-04-23T09:36:15.231Z,29.59
2018-04-23T09:38:45.288Z,29.23
2018-04-23T09:41:15.357Z,29.15
2018-04-23T09:43:46.035Z,30.24
2018-04-23T09:46:16.315Z,30.21
2018-04-23T09:48:46.379Z,30.63
2018-04-23T09:51:16.468Z,30.44
2018-04-23T09:53:46.576Z,30.48
2018-04-23T09:56:16.675Z,30.35
2018-04-23T09:58:46.791Z,28.83
2018-04-23T10:01:20.531Z,29.40
2018-04-23T10:03:51.529Z,29.15
2018-04-23T10:06:21.292Z,29.65
2018-04-23T10:08:51.076Z,29.02
2018-04-23T10:11:21.153Z,29.15
2018-04-23T10:13:51.223Z,29.10
2018-04-23T10:16:21.299Z,29.48
2018-04-23T10:18:51.770Z,29.41
2018-04-23T10:21:21.847Z,28.55
2018-04-23T10:23:52.323Z,29.23
2018-04-23T10:26:22.417Z,29.60
2018-04-23T10:28:52.524Z,30.07
2018-04-23T10:31:23.026Z,28.95
2018-04-23T10:33:53.254Z,29.31
2018-04-23T10:36:23.534Z,31.94
2018-04-23T10:38:53.643Z,30.62
2018-04-23T10:41:23.914Z,30.63
2018-04-23T10:43:54.004Z,30.97
2018-04-23T10:46:24.069Z,30.37
2018-04-23T10:48:54.551Z,30.14
2018-04-23T10:51:24.630Z,31.97
2018-04-23T10:53:54.827Z,30.30
2018-04-23T10:56:24.943Z,31.45
2018-04-23T10:58:55.040Z,29.91
2018-04-23T11:01:25.332Z,30.86
2018-04-23T11:03:55.406Z,31.72
2018-04-23T11:06:25.479Z,30.20
2018-04-23T11:08:55.577Z,30.58
2018-04-23T11:11:25.648Z,31.02
2018-04-23T11:13:55.718Z,31.82
2018-04-23T11:16:25.786Z,30.45
2018-04-23T11:18:55.864Z,30.64
2018-04-23T11:21:26.112Z,31.09
2018-04-23T11:23:56.206Z,31.87
2018-04-23T11:26:26.288Z,31.11
2018-04-23T11:28:56.354Z,30.45
2018-04-23T11:31:26.448Z,31.46
2018-04-23T11:33:56.534Z,31.52
2018-04-23T11:36:26.600Z,31.45
2018-04-23T11:38:56.687Z,31.29
2018-04-23T11:41:26.932Z,30.32
2018-04-23T11:43:57.026Z,31.03
2018-04-23T11:46:27.520Z,29.94
2018-04-23T11:48:57.593Z,30.61
2018-04-23T11:51:27.690Z,31.19
2018-04-23T11:53:57.965Z,32.41
2018-04-23T11:56:28.058Z,33.47
2018-04-23T11:58:58.149Z,33.20
2018-04-23T12:01:28.540Z,33.78
2018-04-23T12:03:58.617Z,32.63
2018-04-23T12:06:29.104Z,34.14
2018-04-23T12:08:59.228Z,34.88
2018-04-23T12:11:29.304Z,35.07
2018-04-23T12:13:59.382Z,35.85
2018-04-23T12:16:29.140Z,35.54
2018-04-23T12:18:59.231Z,35.35
2018-04-23T12:21:29.702Z,35.79
2018-04-23T12:23:59.794Z,36.50
2018-04-23T12:26:29.881Z,35.65
2018-04-23T12:29:00.001Z,35.95
2018-04-23T12:31:30.080Z,35.22
2018-04-23T12:34:00.152Z,35.86
2018-04-23T12:36:30.682Z,35.98
2018-04-23T12:39:00.898Z,36.99
2018-04-23T12:41:31.354Z,35.53
2018-04-23T12:44:01.446Z,36.27
2018-04-23T12:46:31.567Z,38.75
2018-04-23T12:49:01.806Z,39.38
2018-04-23T12:51:31.893Z,38.55
2018-04-23T12:54:01.971Z,37.65
2018-04-23T12:56:32.047Z,38.31
2018-04-23T12:59:02.547Z,38.99
2018-04-23T13:01:32.621Z,39.37
2018-04-23T13:04:02.687Z,39.64
2018-04-23T13:06:32.758Z,39.92
2018-04-23T13:09:03.235Z,40.24
2018-04-23T13:11:33.284Z,40.02
2018-04-23T13:14:03.351Z,40.58
2018-04-23T13:16:33.423Z,38.07
2018-04-23T13:19:03.906Z,38.56
2018-04-23T13:21:33.995Z,39.58
2018-04-23T13:24:04.065Z,39.26
2018-04-23T13:26:34.134Z,40.39
2018-04-23T13:29:04.202Z,40.49
2018-04-23T13:31:34.271Z,40.41
2018-04-23T13:34:04.559Z,40.07
2018-04-23T13:36:34.635Z,39.89
2018-04-23T13:39:03.937Z,39.95
2018-04-23T13:41:34.005Z,40.24
2018-04-23T13:44:04.462Z,39.96
2018-04-23T13:46:34.564Z,40.06
2018-04-23T13:49:04.641Z,40.73
2018-04-23T13:51:34.779Z,41.26
2018-04-23T13:54:04.841Z,41.49
2018-04-23T13:56:34.938Z,40.42
2018-04-23T13:59:05.031Z,39.35
2018-04-23T14:01:35.131Z,39.33
2018-04-23T14:04:05.390Z,38.69
2018-04-23T14:06:35.850Z,39.65
2018-04-23T14:09:05.020Z,39.97
2018-04-23T14:11:35.536Z,41.52
2018-04-23T14:14:05.792Z,41.87
2018-04-23T14:16:35.866Z,42.38
2018-04-23T14:19:05.938Z,44.32
2018-04-23T14:21:36.032Z,43.35
2018-04-23T14:24:06.521Z,43.05
2018-04-23T14:26:36.622Z,42.50
2018-04-23T14:29:06.702Z,41.09
2018-04-23T14:31:37.193Z,40.54
2018-04-23T14:34:07.269Z,40.55
2018-04-23T14:36:37.364Z,40.14
2018-04-23T14:39:07.267Z,40.28
2018-04-23T14:41:37.356Z,40.01
2018-04-23T14:44:07.439Z,40.04
2018-04-23T14:46:37.539Z,40.28
2018-04-23T14:49:08.013Z,41.23
2018-04-23T14:51:38.098Z,41.83
2018-04-23T14:54:08.177Z,42.07
2018-04-23T14:56:38.273Z,42.98
2018-04-23T14:59:08.377Z,43.24
2018-04-23T15:01:38.457Z,44.05
2018-04-23T15:04:08.906Z,44.35
2018-04-23T15:06:38.992Z,44.53
2018-04-23T15:09:09.066Z,46.09
2018-04-23T15:11:39.145Z,49.29
2018-04-23T15:14:09.859Z,50.88
2018-04-23T15:16:39.960Z,50.28
2018-04-23T15:19:09.797Z,52.91
2018-04-23T15:21:39.642Z,52.69
2018-04-23T15:24:09.721Z,53.54
2018-04-23T15:26:39.825Z,54.24
2018-04-23T15:29:09.892Z,54.20
2018-04-23T15:31:40.005Z,56.52
2018-04-23T15:34:10.479Z,52.78
2018-04-23T15:36:40.618Z,52.79
2018-04-23T15:39:10.698Z,51.98
2018-04-23T15:41:40.764Z,53.04
2018-04-23T15:44:09.596Z,53.25
2018-04-23T15:46:39.095Z,53.99
2018-04-23T15:49:08.615Z,54.86
2018-04-23T15:51:38.117Z,56.34
2018-04-23T15:54:07.631Z,55.55
2018-04-23T15:56:37.165Z,55.66
2018-04-23T15:59:07.071Z,54.26
2018-04-23T16:01:36.972Z,55.96
2018-04-23T16:04:06.481Z,55.78
2018-04-23T16:06:35.981Z,56.42
2018-04-23T16:09:04.360Z,55.94
2018-04-23T16:11:33.639Z,55.64
2018-04-23T16:14:03.146Z,53.34
2018-04-23T16:16:32.661Z,53.88
2018-04-23T16:19:02.183Z,54.66
2018-04-23T16:21:31.681Z,53.72
2018-04-23T16:24:01.188Z,54.01
2018-04-23T16:26:30.695Z,53.14
2018-04-23T16:29:00.185Z,53.79
2018-04-23T16:31:29.685Z,53.48
2018-04-23T16:33:58.891Z,53.82
2018-04-23T16:36:28.404Z,54.57
2018-04-23T16:38:57.923Z,54.91
2018-04-23T16:41:27.664Z,55.48
2018-04-23T16:43:57.161Z,54.79
2018-04-23T16:46:27.061Z,55.94
2018-04-23T16:48:56.968Z,57.25
2018-04-23T16:51:26.469Z,56.90
2018-04-23T16:53:55.991Z,58.29
2018-04-23T16:56:25.901Z,58.72
2018-04-23T16:58:55.829Z,58.85
2018-04-23T17:01:25.751Z,59.45
2018-04-23T17:03:55.454Z,60.71
2018-04-23T17:06:25.152Z,60.60
2018-04-23T17:08:55.053Z,61.98
2018-04-23T17:11:24.586Z,62.58
2018-04-23T17:13:54.498Z,63.18
2018-04-23T17:16:24.412Z,62.48
2018-04-23T17:18:54.318Z,65.11
2018-04-23T17:21:24.236Z,65.57
2018-04-23T17:23:54.145Z,66.84
2018-04-23T17:26:24.134Z,66.48
2018-04-23T17:28:53.921Z,66.40
2018-04-23T17:31:23.425Z,67.26
2018-04-23T17:33:53.136Z,66.98
2018-04-23T17:36:22.668Z,67.52
2018-04-23T17:38:52.216Z,67.00
2018-04-23T17:41:22.127Z,67.70
2018-04-23T17:43:52.049Z,67.75
2018-04-23T17:46:21.608Z,68.49
2018-04-23T17:48:51.133Z,69.79
2018-04-23T17:51:20.661Z,69.80
2018-04-23T17:53:50.562Z,70.29
2018-04-23T17:56:20.081Z,70.94
2018-04-23T17:58:50.043Z,70.92
2018-04-23T18:01:19.713Z,70.52
2018-04-23T18:03:49.619Z,70.98
2018-04-23T18:06:19.543Z,71.70
2018-04-23T18:08:49.483Z,72.04
2018-04-23T18:11:18.996Z,72.45
2018-04-23T18:13:48.492Z,71.85
2018-04-23T18:16:18.010Z,71.88
2018-04-23T18:18:47.525Z,72.22
2018-04-23T18:21:17.022Z,72.38
2018-04-23T18:23:46.561Z,72.41
2018-04-23T18:26:16.078Z,73.00
2018-04-23T18:28:45.792Z,72.90
2018-04-23T18:31:15.288Z,72.30
2018-04-23T18:33:44.788Z,72.78
2018-04-23T18:36:14.513Z,72.74
2018-04-23T18:38:44.042Z,72.29
2018-04-23T18:41:13.751Z,73.36
2018-04-23T18:43:43.682Z,73.06
2018-04-23T18:46:13.207Z,73.14
2018-04-23T18:48:42.755Z,72.38
2018-04-23T18:51:12.279Z,73.19
2018-04-23T18:53:43.747Z,72.51
2018-04-23T18:56:13.280Z,72.50
2018-04-23T18:58:42.992Z,72.89
2018-04-23T19:01:12.571Z,72.82
2018-04-23T19:03:42.232Z,73.28
2018-04-23T19:06:11.735Z,72.99
2018-04-23T19:08:41.292Z,72.72
2018-04-23T19:11:11.198Z,72.35
2018-04-23T19:13:41.133Z,72.47
2018-04-23T19:16:10.645Z,71.95
2018-04-23T19:18:40.161Z,72.39
2018-04-23T19:21:09.784Z,72.30
2018-04-23T19:23:39.339Z,71.84
2018-04-23T19:26:08.977Z,71.35
2018-04-23T19:28:38.656Z,71.54
2018-04-23T19:31:08.555Z,71.45
2018-04-23T19:33:38.097Z,71.12
2018-04-23T19:36:07.604Z,71.12
2018-04-23T19:38:37.120Z,71.38
2018-04-23T19:41:06.851Z,71.53
2018-04-23T19:43:36.359Z,72.36
2018-04-23T19:46:05.343Z,72.85
2018-04-23T19:48:34.859Z,73.57
2018-04-23T19:51:04.439Z,73.90
2018-04-23T19:53:33.943Z,74.28
2018-04-23T19:56:03.453Z,74.70
2018-04-23T19:58:32.958Z,74.37
2018-04-23T20:01:02.479Z,74.98
2018-04-23T20:03:32.013Z,75.46
2018-04-23T20:06:01.523Z,75.95
2018-04-23T20:08:31.032Z,75.23
2018-04-23T20:11:00.594Z,75.92
2018-04-23T20:13:30.105Z,76.29
2018-04-23T20:15:59.603Z,76.67
2018-04-23T20:18:29.131Z,76.66
2018-04-23T20:20:58.639Z,76.47
2018-04-23T20:23:28.143Z,76.49
2018-04-23T20:25:57.689Z,75.78
2018-04-23T20:28:27.600Z,75.39
2018-04-23T20:30:57.527Z,76.16
2018-04-23T20:33:27.463Z,75.90
2018-04-23T20:35:57.539Z,75.38
2018-04-23T20:38:27.061Z,75.84
2018-04-23T20:40:56.970Z,75.88
2018-04-23T20:43:26.897Z,75.95
2018-04-23T20:45:56.660Z,75.80
2018-04-23T20:48:26.180Z,75.86
2018-04-23T20:50:55.683Z,75.99
2018-04-23T20:53:25.193Z,75.74
2018-04-23T20:55:54.748Z,75.91
2018-04-23T20:58:24.276Z,76.15
2018-04-23T21:00:53.812Z,76.03
2018-04-23T21:03:24.206Z,76.67
2018-04-23T21:05:53.725Z,76.30
2018-04-23T21:08:23.261Z,76.26
2018-04-23T21:10:53.191Z,75.86
2018-04-23T21:13:23.125Z,75.75
2018-04-23T21:15:52.677Z,75.87
2018-04-23T21:18:22.218Z,76.23
2018-04-23T21:20:51.968Z,75.26
2018-04-23T21:23:21.477Z,75.82
2018-04-23T21:25:51.153Z,76.08
2018-04-23T21:28:20.994Z,76.01
2018-04-23T21:30:51.124Z,76.04
2018-04-23T21:33:20.667Z,75.96
2018-04-23T21:35:50.204Z,75.97
2018-04-23T21:41:56.176Z,76.66
2018-04-23T21:44:26.096Z,76.45
2018-04-23T21:46:56.006Z,76.96
2018-04-23T21:49:25.924Z,77.07
2018-04-23T21:51:55.832Z,77.19
2018-04-23T21:54:25.762Z,76.74
2018-04-23T21:56:55.323Z,76.71
2018-04-23T21:59:24.834Z,76.73
2018-04-23T22:01:54.741Z,76.50
2018-04-23T22:04:24.812Z,76.32
2018-04-23T22:06:54.761Z,76.10
2018-04-23T22:09:24.353Z,76.07
2018-04-23T22:11:54.055Z,75.79
2018-04-23T22:14:23.563Z,75.10
2018-04-23T22:16:52.873Z,75.12
2018-04-23T22:19:22.374Z,75.10
2018-04-23T22:21:51.888Z,75.43
2018-04-23T22:24:21.411Z,75.59
2018-04-23T22:26:50.925Z,75.77
2018-04-23T22:30:02.350Z,75.83
2018-04-23T22:32:32.257Z,76.06
2018-04-23T22:35:01.771Z,76.27
2018-04-23T22:37:31.453Z,76.35
2018-04-23T22:40:00.957Z,76.61
2018-04-23T22:42:30.468Z,76.58
2018-04-23T22:44:59.971Z,76.51
2018-04-23T22:47:29.485Z,76.39
2018-04-23T22:49:58.994Z,75.90
2018-04-23T22:52:28.509Z,76.31
2018-04-23T22:54:58.030Z,76.08
2018-04-23T22:57:27.938Z,76.46
2018-04-23T22:59:57.835Z,76.85
2018-04-23T23:02:27.379Z,77.17
2018-04-23T23:04:56.889Z,77.34
2018-04-23T23:07:26.606Z,77.64
2018-04-23T23:09:56.158Z,77.78
2018-04-23T23:12:25.348Z,77.76
2018-04-23T23:14:54.867Z,78.09
2018-04-23T23:17:24.412Z,77.76
2018-04-23T23:19:53.907Z,78.14
2018-04-23T23:22:23.839Z,78.16
2018-04-23T23:24:53.350Z,78.29
2018-04-23T23:27:22.874Z,78.30
2018-04-23T23:29:52.557Z,78.27
2018-04-23T23:32:22.066Z,78.59
2018-04-23T23:34:51.569Z,78.50
2018-04-23T23:37:21.070Z,78.50
2018-04-23T23:39:50.614Z,78.18
2018-04-23T23:42:20.146Z,78.17
2018-04-23T23:44:49.660Z,77.79
2018-04-23T23:47:19.171Z,77.48
2018-04-23T23:49:49.098Z,77.27
2018-04-23T23:52:18.999Z,77.03
2018-04-23T23:54:48.929Z,77.25
2018-04-23T23:57:18.880Z,77.18
2018-04-23T23:59:48.567Z,77.21
